Terminal Aerodrome Forecast
Issued by NWS

Home | Current Version | Previous Version | Text Only | Print | Product List | Glossary On
Versions: 1 2 3 4 5 6 7 8 9 10 11 12 13 14
184
FTUS46 KLOX 112349
TAFOXR
TAF
KOXR 112349Z 1200/1224 26010KT P6SM SCT250
     FM120300 VRB03KT 6SM BR VCFG SCT001 BKN250
     FM121500 05005KT P6SM BKN250
     FM122100 27010KT P6SM BKN250=

USA.gov is the U.S. government's official web portal to all federal, state and local government web resources and services.